createdAt,value
2019-06-15T07:34:29.370Z,16.97
2019-06-15T07:52:05.227Z,17.42
2019-06-15T07:54:36.166Z,17.44
2019-06-15T07:57:03.861Z,17.46
2019-06-15T07:59:45.586Z,17.64
2019-06-15T08:02:14.080Z,17.45
2019-06-15T08:04:42.473Z,17.30
2019-06-15T08:07:10.914Z,17.30
2019-06-15T08:09:39.307Z,17.41
2019-06-15T08:12:07.697Z,17.49
2019-06-15T08:14:36.090Z,17.73
2019-06-15T08:17:04.550Z,17.91
2019-06-15T08:19:33.012Z,17.85
2019-06-15T08:22:01.433Z,17.70
2019-06-15T08:24:29.833Z,17.70
2019-06-15T08:26:58.352Z,17.87
2019-06-15T08:29:26.738Z,17.81
2019-06-15T08:31:55.597Z,18.17
2019-06-15T08:34:23.947Z,18.73
2019-06-15T08:36:52.366Z,19.24
2019-06-15T08:39:20.810Z,19.54
2019-06-15T08:41:49.204Z,19.67
2019-06-15T08:44:17.631Z,19.78
2019-06-15T08:46:46.031Z,19.84
2019-06-15T08:49:14.431Z,19.94
2019-06-15T08:51:42.822Z,20.01
2019-06-15T08:54:11.217Z,20.10
2019-06-15T08:56:39.638Z,20.22
2019-06-15T08:59:08.029Z,20.20
2019-06-15T09:01:36.423Z,20.11
2019-06-15T09:04:04.908Z,20.05
2019-06-15T09:06:33.303Z,20.01
2019-06-15T09:09:01.721Z,19.99
2019-06-15T09:11:30.212Z,20.14
2019-06-15T09:13:58.578Z,20.29
2019-06-15T09:16:26.973Z,20.52
2019-06-15T09:18:57.531Z,20.74
2019-06-15T09:21:25.843Z,21.02
2019-06-15T09:23:54.259Z,21.17
2019-06-15T09:26:22.683Z,21.05
2019-06-15T09:28:51.084Z,20.92
2019-06-15T09:31:19.757Z,21.00
2019-06-15T09:33:48.382Z,21.14
2019-06-15T09:36:17.155Z,21.07
2019-06-15T09:38:47.037Z,21.08
2019-06-15T09:41:21.498Z,21.33
2019-06-15T09:43:50.502Z,21.52
2019-06-15T09:46:19.289Z,21.53
2019-06-15T09:48:53.333Z,21.72
2019-06-15T09:51:21.956Z,21.92
2019-06-15T09:53:50.887Z,22.03
2019-06-15T09:56:19.337Z,22.21
2019-06-15T09:58:47.815Z,22.29
2019-06-15T10:01:16.248Z,22.18
2019-06-15T10:03:44.649Z,22.14
2019-06-15T10:06:13.125Z,22.30
2019-06-15T10:08:41.799Z,22.38
2019-06-15T10:11:10.190Z,22.21
2019-06-15T10:13:38.583Z,22.16
2019-06-15T10:16:07.078Z,22.24
2019-06-15T10:18:38.638Z,22.37
2019-06-15T10:21:05.861Z,22.57
2019-06-15T10:23:34.553Z,22.65
2019-06-15T10:26:03.040Z,22.35
2019-06-15T10:28:31.437Z,22.40
2019-06-15T10:31:01.023Z,22.46
2019-06-15T10:33:29.366Z,22.55
2019-06-15T10:35:57.752Z,22.68
2019-06-15T10:38:26.155Z,23.07
2019-06-15T10:40:54.548Z,23.36
2019-06-15T10:43:23.052Z,23.25
2019-06-15T10:45:51.453Z,23.03
2019-06-15T10:48:19.927Z,23.15
2019-06-15T10:50:48.430Z,23.45
2019-06-15T10:53:16.801Z,23.59
2019-06-15T10:55:45.201Z,23.73
2019-06-15T10:58:13.603Z,23.99
2019-06-15T11:00:43.196Z,24.12
2019-06-15T11:03:11.583Z,24.20
2019-06-15T11:05:39.979Z,24.23
2019-06-15T11:08:08.372Z,24.31
2019-06-15T11:10:57.771Z,24.32
2019-06-15T11:13:26.339Z,24.13
2019-06-15T11:15:54.810Z,24.38
2019-06-15T11:18:23.205Z,24.66
2019-06-15T11:20:51.605Z,24.78
2019-06-15T11:23:20.037Z,24.99
2019-06-15T11:25:48.428Z,25.27
2019-06-15T11:28:16.819Z,25.26
2019-06-15T11:30:45.231Z,25.38
2019-06-15T11:33:13.640Z,25.48
2019-06-15T11:35:42.965Z,25.59
2019-06-15T11:38:11.367Z,25.36
2019-06-15T11:40:39.766Z,25.37
2019-06-15T11:43:08.150Z,25.37
2019-06-15T11:45:36.583Z,24.97
2019-06-15T11:48:05.054Z,24.97
2019-06-15T11:50:33.975Z,24.88
2019-06-15T11:53:02.367Z,25.03
2019-06-15T11:55:39.129Z,25.20
2019-06-15T11:58:00.887Z,25.23
2019-06-15T12:00:32.340Z,25.09
2019-06-15T12:03:00.778Z,25.05
2019-06-15T12:05:29.167Z,25.22
2019-06-15T12:07:57.554Z,25.25
2019-06-15T12:10:25.975Z,25.24
2019-06-15T12:12:54.377Z,24.75
2019-06-15T12:15:22.791Z,24.75
2019-06-15T12:17:51.282Z,24.92
2019-06-15T12:20:19.768Z,24.92
2019-06-15T12:22:48.443Z,24.88
2019-06-15T12:25:16.940Z,24.91
2019-06-15T12:27:45.377Z,25.03
2019-06-15T12:30:14.136Z,25.22
2019-06-15T12:32:42.517Z,25.30
2019-06-15T12:35:10.989Z,25.54
2019-06-15T12:37:39.379Z,25.60
2019-06-15T12:40:08.393Z,25.38
2019-06-15T12:42:36.799Z,25.38
2019-06-15T12:45:06.029Z,25.31
2019-06-15T12:47:34.612Z,25.31
2019-06-15T12:50:04.082Z,25.26
2019-06-15T12:52:32.544Z,25.35
2019-06-15T12:55:00.963Z,25.38
2019-06-15T12:57:29.934Z,25.62
2019-06-15T12:59:58.325Z,25.75
2019-06-15T13:02:26.762Z,25.89
2019-06-15T13:04:55.174Z,26.06
2019-06-15T13:07:23.548Z,26.08
2019-06-15T13:09:51.963Z,26.14
2019-06-15T13:12:20.941Z,26.26
2019-06-15T13:14:49.331Z,26.53
2019-06-15T13:17:17.720Z,26.59
2019-06-15T13:19:46.121Z,26.44
2019-06-15T13:22:14.555Z,26.68
2019-06-15T13:24:42.960Z,26.86
2019-06-15T13:27:11.384Z,26.99
2019-06-15T13:29:39.788Z,27.18
2019-06-15T13:32:08.159Z,27.23
2019-06-15T13:34:36.544Z,27.33
2019-06-15T13:37:05.124Z,27.14
2019-06-15T13:39:33.521Z,26.88
2019-06-15T13:42:01.948Z,26.66
2019-06-15T13:44:30.359Z,26.23
2019-06-15T13:46:58.758Z,25.93
2019-06-15T13:49:27.155Z,26.11
2019-06-15T13:51:55.548Z,25.93
2019-06-15T13:54:23.951Z,25.85
2019-06-15T13:56:52.405Z,25.85
2019-06-15T13:59:20.812Z,26.03
2019-06-15T14:01:49.214Z,26.18
2019-06-15T14:04:17.620Z,26.43
2019-06-15T14:06:46.007Z,26.56
2019-06-15T14:09:14.427Z,26.55
2019-06-15T14:11:42.845Z,26.27
2019-06-15T14:14:11.276Z,26.04
2019-06-15T14:16:39.668Z,26.11
2019-06-15T14:19:08.072Z,26.06
2019-06-15T14:21:36.472Z,26.07
2019-06-15T14:24:04.950Z,25.90
2019-06-15T14:26:33.426Z,25.79
2019-06-15T14:29:02.012Z,25.93
2019-06-15T14:31:30.421Z,25.91
2019-06-15T14:33:59.209Z,26.05
2019-06-15T14:36:27.616Z,26.19
2019-06-15T14:38:56.005Z,26.13
2019-06-15T14:41:24.401Z,25.47
2019-06-15T14:43:52.798Z,25.10
2019-06-15T14:46:21.205Z,24.84
2019-06-15T14:48:49.593Z,24.69
2019-06-15T14:51:18.010Z,24.54
2019-06-15T14:53:49.905Z,24.30
2019-06-15T14:56:16.530Z,24.24
2019-06-15T14:58:45.882Z,24.11
2019-06-15T15:01:16.756Z,24.01
2019-06-15T15:03:47.292Z,23.99
2019-06-15T15:06:17.232Z,23.86
2019-06-15T15:08:47.152Z,23.93
2019-06-15T15:11:17.050Z,23.93
2019-06-15T15:13:47.156Z,24.03
2019-06-15T15:16:17.784Z,24.03
2019-06-15T15:18:46.454Z,24.10
2019-06-15T15:21:16.511Z,24.07
2019-06-15T15:23:46.459Z,24.20
2019-06-15T15:26:17.153Z,24.24
2019-06-15T15:28:47.264Z,24.27
2019-06-15T15:31:17.120Z,24.11
2019-06-15T15:33:47.666Z,23.93
2019-06-15T15:36:16.905Z,23.81
2019-06-15T15:38:46.861Z,23.72
2019-06-15T15:41:17.089Z,23.74
2019-06-15T15:43:46.391Z,23.76
2019-06-15T15:46:16.448Z,23.78
2019-06-15T15:48:46.930Z,23.60
2019-06-15T15:51:17.172Z,23.46
2019-06-15T15:53:46.739Z,23.46
2019-06-15T15:56:17.044Z,23.36
2019-06-15T15:58:47.190Z,23.36
2019-06-15T16:01:17.152Z,23.31
2019-06-15T16:03:47.474Z,23.22
2019-06-15T16:06:15.823Z,23.02
2019-06-15T16:08:46.700Z,22.88
2019-06-15T16:11:16.340Z,22.84
2019-06-15T16:13:46.140Z,22.81
2019-06-15T16:16:16.492Z,22.79
2019-06-15T16:18:46.928Z,22.69
2019-06-15T16:21:16.905Z,22.70
2019-06-15T16:23:46.718Z,22.68
2019-06-15T16:26:16.930Z,22.71
2019-06-15T16:28:46.202Z,22.70
2019-06-15T16:31:17.769Z,22.75
2019-06-15T16:33:46.531Z,22.81
2019-06-15T16:36:15.172Z,22.87
2019-06-15T16:38:43.862Z,22.89
2019-06-15T16:41:12.248Z,22.81
2019-06-15T16:43:40.636Z,22.60
2019-06-15T16:46:09.033Z,22.67
2019-06-15T16:48:37.453Z,22.78
2019-06-15T16:51:06.706Z,22.79
2019-06-15T16:53:37.257Z,22.78
2019-06-15T16:56:06.145Z,22.81
2019-06-15T16:58:36.391Z,22.79
2019-06-15T17:01:06.519Z,22.82
2019-06-15T17:03:36.672Z,22.79
2019-06-15T17:07:36.763Z,22.86
2019-06-15T17:10:06.763Z,22.79
2019-06-15T17:12:37.187Z,22.72
2019-06-15T17:15:08.427Z,22.74
2019-06-15T17:17:37.025Z,22.75
2019-06-15T17:20:08.425Z,22.74
2019-06-15T17:22:37.854Z,22.72
2019-06-15T17:25:08.630Z,22.70
2019-06-15T17:27:37.634Z,22.67
2019-06-15T17:30:07.241Z,22.63
2019-06-15T17:32:40.211Z,22.60
2019-06-15T17:35:08.683Z,22.53
2019-06-15T17:37:37.082Z,22.42
2019-06-15T17:40:09.427Z,22.36
2019-06-15T17:42:37.851Z,22.28
2019-06-15T17:45:06.960Z,22.32
2019-06-15T17:47:35.343Z,22.24
2019-06-15T17:50:07.504Z,22.12
2019-06-15T17:52:36.051Z,22.10
2019-06-15T17:55:07.328Z,22.04
2019-06-15T17:57:36.188Z,22.04
2019-06-15T18:00:07.633Z,22.05
2019-06-15T18:02:38.311Z,22.04
2019-06-15T18:05:07.237Z,22.06
2019-06-15T18:07:36.093Z,22.06
2019-06-15T18:10:07.450Z,22.03
2019-06-15T18:12:35.848Z,21.99
2019-06-15T18:15:07.360Z,22.01
2019-06-15T18:17:36.991Z,22.00
2019-06-15T18:20:06.799Z,21.95
2019-06-15T18:22:36.253Z,21.84
2019-06-15T18:25:06.512Z,21.74
2019-06-15T18:27:37.273Z,21.65
2019-06-15T18:30:08.791Z,21.58
2019-06-15T18:32:38.065Z,21.57
2019-06-15T18:35:07.423Z,21.54
2019-06-15T18:37:37.187Z,21.53
2019-06-15T18:40:07.994Z,21.53
2019-06-15T18:42:37.021Z,21.47
2019-06-15T18:45:07.234Z,21.49
2019-06-15T18:47:36.380Z,21.46
2019-06-15T18:50:09.296Z,21.47
2019-06-15T18:52:37.998Z,21.44
2019-06-15T18:55:07.820Z,21.40
2019-06-15T18:57:37.234Z,21.34
2019-06-15T19:00:07.716Z,21.30
2019-06-15T19:02:36.375Z,21.20
2019-06-15T19:05:09.124Z,21.08
2019-06-15T19:07:37.915Z,20.95
2019-06-15T19:10:07.330Z,20.91
2019-06-15T19:12:35.756Z,20.88
2019-06-15T19:15:07.269Z,20.86
2019-06-15T19:17:37.024Z,20.85
2019-06-15T19:20:07.350Z,20.82
2019-06-15T19:22:35.757Z,20.79
2019-06-15T19:25:05.480Z,20.76
2019-06-15T19:27:36.427Z,20.69
2019-06-15T19:30:08.171Z,20.60
2019-06-15T19:32:36.942Z,20.52
2019-06-15T19:35:07.615Z,20.44
2019-06-15T19:37:37.017Z,20.37
2019-06-15T19:40:07.414Z,20.34
2019-06-15T19:42:36.972Z,20.27
2019-06-15T19:45:10.368Z,20.21
2019-06-15T19:47:38.053Z,20.16
2019-06-15T19:50:09.969Z,20.15
2019-06-15T19:52:38.043Z,20.07
2019-06-15T19:55:07.276Z,19.99
2019-06-15T19:57:36.197Z,19.92
2019-06-15T20:00:07.444Z,19.84
2019-06-15T20:02:36.475Z,19.74
2019-06-15T20:05:10.250Z,19.66
2019-06-15T20:07:38.756Z,19.62
2019-06-15T20:10:10.685Z,19.53
2019-06-15T20:12:39.085Z,19.43
2019-06-15T20:15:08.015Z,19.37
2019-06-15T20:17:36.891Z,19.31
2019-06-15T20:20:07.242Z,19.21
2019-06-15T20:22:37.246Z,19.07
2019-06-15T20:25:07.832Z,18.97
2019-06-15T20:27:37.640Z,18.86
2019-06-15T20:30:08.794Z,18.73
2019-06-15T20:32:37.457Z,18.60
2019-06-15T20:35:17.730Z,18.48
2019-06-15T20:37:40.223Z,18.36
2019-06-15T20:40:09.303Z,18.23
2019-06-15T20:42:38.085Z,18.05
2019-06-15T20:45:10.592Z,17.87
2019-06-15T20:47:39.081Z,17.75
2019-06-15T20:50:21.955Z,17.65
2019-06-15T20:52:39.516Z,17.54
2019-06-15T20:55:08.336Z,17.46
2019-06-15T20:57:37.247Z,17.43
2019-06-15T21:00:10.675Z,17.38
2019-06-15T21:02:39.259Z,17.31
2019-06-15T21:05:08.684Z,17.27
2019-06-15T21:07:37.092Z,17.22
2019-06-15T21:10:07.307Z,17.17
2019-06-15T21:12:37.561Z,17.13
2019-06-15T21:15:08.873Z,17.13
2019-06-15T21:17:37.506Z,17.12
2019-06-15T21:20:10.541Z,17.13
2019-06-15T21:22:39.176Z,17.22
2019-06-15T21:25:09.511Z,17.25
2019-06-15T21:27:37.982Z,17.21
2019-06-15T21:30:11.146Z,17.19
2019-06-15T21:32:39.540Z,17.17
2019-06-15T21:35:08.777Z,17.17
2019-06-15T21:37:37.301Z,17.18
2019-06-15T21:40:08.022Z,17.22
2019-06-15T21:42:36.512Z,17.19
2019-06-15T21:45:08.389Z,17.13
2019-06-15T21:47:37.247Z,17.08
2019-06-15T21:50:07.402Z,17.04
2019-06-15T21:52:36.422Z,17.04
2019-06-15T21:55:07.146Z,17.09
2019-06-15T21:57:36.513Z,17.13
2019-06-15T22:00:17.416Z,17.15
2019-06-15T22:02:47.070Z,17.07
2019-06-15T22:05:16.590Z,17.02
2019-06-15T22:07:47.451Z,16.97
2019-06-15T22:10:16.044Z,16.97
2019-06-15T22:12:44.415Z,16.93
2019-06-15T22:15:13.049Z,16.84
2019-06-15T22:17:42.399Z,16.76
2019-06-15T22:20:12.041Z,16.68
2019-06-15T22:22:40.427Z,16.61
2019-06-15T22:25:09.270Z,16.53
2019-06-15T22:27:37.655Z,16.42
2019-06-15T22:30:09.179Z,16.32
2019-06-15T22:32:37.577Z,16.27
2019-06-15T22:35:07.517Z,16.28
2019-06-15T22:37:36.186Z,16.26
2019-06-15T22:40:08.296Z,16.20
2019-06-15T22:42:36.780Z,16.15
2019-06-15T22:45:07.954Z,16.08
2019-06-15T22:47:36.989Z,15.97
2019-06-15T22:50:07.844Z,15.84
2019-06-15T22:52:36.736Z,15.74
2019-06-15T22:55:08.878Z,15.66
2019-06-15T22:57:37.341Z,15.64
2019-06-15T23:00:08.023Z,15.61
2019-06-15T23:02:36.798Z,15.58
2019-06-15T23:05:06.486Z,15.55
2019-06-15T23:07:36.443Z,15.51
2019-06-15T23:10:06.966Z,15.47
2019-06-15T23:12:37.115Z,15.42
2019-06-15T23:15:07.455Z,15.42
2019-06-15T23:17:37.245Z,15.41
2019-06-15T23:20:09.443Z,15.42
2019-06-15T23:22:37.859Z,15.42
2019-06-15T23:25:08.727Z,15.40
2019-06-15T23:27:37.119Z,15.30
2019-06-15T23:30:09.669Z,15.21
2019-06-15T23:32:38.136Z,15.14
2019-06-15T23:35:10.285Z,15.10
2019-06-15T23:37:38.658Z,15.03
2019-06-15T23:40:19.945Z,15.00
2019-06-15T23:42:49.583Z,14.99
2019-06-15T23:45:19.512Z,14.97
2019-06-15T23:47:48.179Z,14.97
2019-06-15T23:50:18.825Z,15.00
2019-06-15T23:52:48.257Z,15.10
2019-06-15T23:55:18.020Z,15.16
2019-06-15T23:57:46.691Z,15.17
